Lulu Pass Weather Station

This weather station provides temperature, relative humidity (RH), wind speed, gust or max wind speed, and wind direction at 10014ft near Lulu Pass at the head of Fisher Creek. This data can be used with temperature and precipitation data from the Fisher Creek SNOTEL site.

This weather station was purchased by the Friends of the Avalanche Center.

If the data has not been updated recently you can view it directly on datagarrison.com

Elevation
10014ft
Jump to table bottom
Date Time Temperature
deg F
RH, % Wind Speed Wind Gust Wind Direction
03/29/20 04:00 14.6 95 6 12 W - 279
03/29/20 03:00 14.9 95 6 15 W - 260
03/29/20 02:00 15.1 95 8 16 SW - 240
03/29/20 01:00 14.6 95 8 16 SW - 233
03/29/20 00:00 14.8 95 6 12 SW - 232
03/28/20 23:00 14.5 95 6 11 SW - 243
03/28/20 22:00 14.8 95 7 13 SW - 234
03/28/20 21:00 14.9 95 6 12 W - 260
03/28/20 20:00 15.0 95 6 12 W - 271
03/28/20 19:00 15.4 95 6 13 W - 261
03/28/20 18:00 16.0 92 7 19 W - 268
03/28/20 17:00 17.0 88 8 17 W - 263
03/28/20 16:00 18.4 87 8 18 W - 271
03/28/20 15:00 19.5 81 9 19 W - 274
03/28/20 14:00 19.1 86 10 20 W - 270
03/28/20 13:00 18.2 93 10 20 W - 275
03/28/20 12:00 18.0 94 9 20 W - 250
03/28/20 11:00 16.2 94 9 17 SW - 246
03/28/20 10:00 14.9 94 10 18 W - 264
03/28/20 09:00 15.4 94 10 22 W - 289
03/28/20 08:00 13.8 94 12 20 NW - 293
03/28/20 07:00 12.6 93 10 19 NW - 300
03/28/20 06:00 11.4 93 10 17 NW - 295
03/28/20 05:00 10.8 93 8 16 W - 288
03/28/20 04:00 10.7 93 8 18 W - 282
03/28/20 03:00 10.7 93 10 17 W - 289
03/28/20 02:00 10.7 93 10 16 NW - 293
03/28/20 01:00 10.4 93 10 16 NW - 309
03/28/20 00:00 10.0 93 10 13 NW - 327
03/27/20 23:00 9.7 92 10 13 NW - 327
03/27/20 22:00 10.0 92 9 13 NW - 320
03/27/20 21:00 9.8 92 7 13 W - 286
03/27/20 20:00 10.4 93 7 14 W - 275
03/27/20 19:00 10.8 91 7 15 SW - 241
03/27/20 18:00 11.3 86 7 13 SW - 239
03/27/20 17:00 12.0 75 8 14 SW - 232
03/27/20 16:00 14.0 72 9 16 SW - 241
03/27/20 15:00 14.6 67 7 16 W - 275
03/27/20 14:00 15.1 68 7 17 W - 267
03/27/20 13:00 15.5 71 9 17 W - 258
03/27/20 12:00 13.1 81 6 16 W - 258
03/27/20 11:00 12.2 84 6 15 W - 267
03/27/20 10:00 11.1 87 6 12 W - 257
03/27/20 09:00 9.0 89 8 17 NW - 309
03/27/20 08:00 6.7 90 6 13 NW - 312
03/27/20 07:00 5.6 90 4 7 N - 338
03/27/20 06:00 3.6 91 2 3 NW - 337
03/27/20 05:00 3.4 91 3 6 N - 352
03/27/20 04:00 2.8 91 3 6 NW - 298
03/27/20 03:00 4.0 91 3 7 SW - 246